createdAt,value
2022-08-05T00:04:19.587Z,53.83
2022-08-05T00:09:21.149Z,53.47
2022-08-05T00:14:27.561Z,53.40
2022-08-05T00:19:33.145Z,53.66
2022-08-05T00:24:35.556Z,53.52
2022-08-05T00:29:38.161Z,53.23
2022-08-05T00:34:54.675Z,53.17
2022-08-05T00:40:02.227Z,53.00
2022-08-05T00:45:08.501Z,52.55
2022-08-05T00:50:12.975Z,52.64
2022-08-05T00:55:15.086Z,52.57
2022-08-05T01:00:16.959Z,52.42
2022-08-05T01:05:18.666Z,53.10
2022-08-05T01:10:22.151Z,52.60
2022-08-05T01:15:36.158Z,53.17
2022-08-05T01:20:46.145Z,52.92
2022-08-05T01:26:19.765Z,52.92
2022-08-05T01:31:34.520Z,53.23
2022-08-05T01:37:18.219Z,53.40
2022-08-05T01:42:26.944Z,52.14
2022-08-05T01:47:38.737Z,52.83
2022-08-05T01:52:41.463Z,52.68
2022-08-05T01:58:18.780Z,52.92
2022-08-05T02:03:16.422Z,52.78
2022-08-05T02:08:31.320Z,53.10
2022-08-05T02:13:48.924Z,53.61
2022-08-05T02:18:58.938Z,52.66
2022-08-05T02:24:06.368Z,53.36
2022-08-05T02:29:08.780Z,53.36
2022-08-05T02:34:22.991Z,54.00
2022-08-05T02:39:24.554Z,54.01
2022-08-05T02:44:26.107Z,53.58
2022-08-05T02:49:35.715Z,52.97
2022-08-05T02:54:41.200Z,52.96
2022-08-05T02:59:50.697Z,53.19
2022-08-05T03:04:54.182Z,53.40
2022-08-05T03:09:57.286Z,51.92
2022-08-05T03:14:58.840Z,52.55
2022-08-05T03:20:00.384Z,52.42
2022-08-05T03:25:32.553Z,51.69
2022-08-05T03:30:30.156Z,52.29
2022-08-05T03:35:40.707Z,52.11
2022-08-05T03:40:45.163Z,51.07
2022-08-05T03:45:57.930Z,51.98
2022-08-05T03:52:39.019Z,52.56
2022-08-05T03:56:50.211Z,51.37
2022-08-05T04:01:53.736Z,50.97
2022-08-05T04:07:00.685Z,51.25
2022-08-05T04:12:02.264Z,50.52
2022-08-05T04:17:03.791Z,50.33
2022-08-05T04:22:11.675Z,50.55
2022-08-05T04:27:13.604Z,49.75
2022-08-05T04:32:20.009Z,48.92
2022-08-05T04:38:02.386Z,49.03
2022-08-05T04:42:54.467Z,49.84
2022-08-05T04:48:10.323Z,48.98
2022-08-05T04:53:20.282Z,49.49
2022-08-05T04:58:22.303Z,49.19
2022-08-05T05:03:23.822Z,49.35
2022-08-05T05:08:30.066Z,49.09
2022-08-05T05:13:43.376Z,49.16
2022-08-05T05:19:02.500Z,50.08
2022-08-05T05:24:08.936Z,49.63
2022-08-05T05:29:14.898Z,49.86
2022-08-05T05:34:21.187Z,49.72
2022-08-05T05:39:31.718Z,49.92
2022-08-05T05:44:42.891Z,48.62
2022-08-05T05:49:44.732Z,49.14
2022-08-05T05:54:54.160Z,49.51
2022-08-05T05:59:56.048Z,49.62
2022-08-05T06:04:58.599Z,49.01
2022-08-05T06:10:08.315Z,48.87
2022-08-05T06:15:23.761Z,49.00
2022-08-05T06:20:25.892Z,49.22
2022-08-05T06:26:12.181Z,49.29
2022-08-05T06:30:51.752Z,50.78
2022-08-05T06:36:07.410Z,50.44
2022-08-05T06:41:11.652Z,50.48
2022-08-05T06:46:13.349Z,49.32
2022-08-05T06:51:22.821Z,49.47
2022-08-05T06:56:33.336Z,49.43
2022-08-05T07:01:36.680Z,48.69
2022-08-05T07:06:38.369Z,48.62
2022-08-05T07:11:40.132Z,48.84
2022-08-05T07:17:59.793Z,47.24
2022-08-05T07:22:11.854Z,48.14
2022-08-05T07:27:17.378Z,47.25
2022-08-05T07:32:18.892Z,46.23
2022-08-05T07:37:29.081Z,44.69
2022-08-05T07:42:37.738Z,44.69
2022-08-05T07:47:42.415Z,45.44
2022-08-05T07:52:44.727Z,45.75
2022-08-05T07:57:57.442Z,44.09
2022-08-05T08:03:14.995Z,44.03
2022-08-05T08:08:20.096Z,43.20
2022-08-05T08:13:28.867Z,43.47
2022-08-05T08:18:30.790Z,43.87
2022-08-05T08:24:01.329Z,43.70
2022-08-05T08:28:59.200Z,43.25
2022-08-05T08:34:01.516Z,43.00
2022-08-05T08:39:03.119Z,42.80
2022-08-05T08:45:20.485Z,42.28
2022-08-05T08:50:07.764Z,42.42
2022-08-05T08:54:50.572Z,42.26
2022-08-05T08:59:52.070Z,42.66
2022-08-05T09:05:16.430Z,42.69
2022-08-05T09:10:19.512Z,42.76
2022-08-05T09:15:22.009Z,43.16
2022-08-05T09:20:37.359Z,43.06
2022-08-05T09:26:01.346Z,43.10
2022-08-05T09:32:08.522Z,42.16
2022-08-05T09:36:45.827Z,42.24
2022-08-05T09:42:04.662Z,41.88
2022-08-05T09:47:10.386Z,42.46
2022-08-05T09:52:22.289Z,42.05
2022-08-05T09:57:45.938Z,42.00
2022-08-05T10:02:50.161Z,41.11
2022-08-05T10:08:35.740Z,41.67
2022-08-05T10:13:43.840Z,40.79
2022-08-05T10:18:48.294Z,40.50
2022-08-05T10:23:55.536Z,40.49
2022-08-05T10:29:00.981Z,39.92
2022-08-05T10:34:02.478Z,40.38
2022-08-05T10:39:15.026Z,39.59
2022-08-05T10:44:26.702Z,41.56
2022-08-05T10:49:33.515Z,41.26
2022-08-05T10:55:04.606Z,40.78
2022-08-05T11:00:22.902Z,39.82
2022-08-05T11:05:28.830Z,41.60
2022-08-05T11:10:31.291Z,40.52
2022-08-05T11:16:01.193Z,40.04
2022-08-05T11:20:57.394Z,40.26
2022-08-05T11:26:06.005Z,40.22
2022-08-05T11:31:09.968Z,40.20
2022-08-05T11:36:11.840Z,39.83
2022-08-05T11:41:54.751Z,40.16
2022-08-05T11:47:09.925Z,41.78
2022-08-05T11:52:11.271Z,44.52
2022-08-05T11:57:25.825Z,45.45
2022-08-05T12:02:32.990Z,48.68
2022-08-05T12:08:08.669Z,50.44
2022-08-05T12:13:03.899Z,52.06
2022-08-05T12:18:32.723Z,52.76
2022-08-05T12:23:34.728Z,53.66
2022-08-05T12:28:44.650Z,53.83
2022-08-05T12:33:48.193Z,53.44
2022-08-05T12:38:49.736Z,52.32
2022-08-05T12:43:56.455Z,50.96
2022-08-05T12:49:01.688Z,50.11
2022-08-05T12:54:23.667Z,52.55
2022-08-05T13:00:08.817Z,51.72
2022-08-05T13:04:54.933Z,52.24
2022-08-05T13:09:58.899Z,51.40
2022-08-05T13:15:05.502Z,49.51
2022-08-05T13:20:11.495Z,49.56
2022-08-05T13:25:19.283Z,49.79
2022-08-05T13:30:34.352Z,48.87
2022-08-05T13:35:50.449Z,47.59
2022-08-05T13:40:53.309Z,49.23
2022-08-05T13:45:55.139Z,48.21
2022-08-05T13:51:05.436Z,47.57
2022-08-05T13:56:18.959Z,47.38
2022-08-05T14:01:24.698Z,47.85
2022-08-05T14:06:37.650Z,48.66
2022-08-05T14:12:00.349Z,48.90
2022-08-05T14:17:03.200Z,45.76
2022-08-05T14:22:09.178Z,48.10
2022-08-05T14:27:17.550Z,53.97
2022-08-05T14:32:26.966Z,55.47
2022-08-05T14:37:44.810Z,55.83
2022-08-05T14:42:50.439Z,53.38
2022-08-05T14:48:05.803Z,52.45
2022-08-05T14:53:10.215Z,50.07
2022-08-05T14:58:13.850Z,50.54
2022-08-05T15:03:15.664Z,49.29
2022-08-05T15:08:57.657Z,48.97
2022-08-05T15:13:46.078Z,51.47
2022-08-05T15:18:52.513Z,52.04
2022-08-05T15:23:54.252Z,50.90
2022-08-05T15:28:56.072Z,49.85
2022-08-05T15:34:18.691Z,49.52
2022-08-05T15:40:59.732Z,47.13
2022-08-05T15:44:43.569Z,47.60
2022-08-05T15:49:56.682Z,48.66
2022-08-05T15:55:00.551Z,47.59
2022-08-05T16:00:06.990Z,48.20
2022-08-05T16:05:09.731Z,45.69
2022-08-05T16:10:12.795Z,45.96
2022-08-05T16:15:18.558Z,45.89
2022-08-05T16:20:20.392Z,45.05
2022-08-05T16:25:21.909Z,45.45
2022-08-05T16:30:34.272Z,49.98
2022-08-05T16:35:42.457Z,51.31
2022-08-05T16:40:48.085Z,51.15
2022-08-05T16:46:07.856Z,49.44
2022-08-05T16:51:15.794Z,48.92
2022-08-05T16:56:17.496Z,49.49
2022-08-05T17:01:19.201Z,50.05
2022-08-05T17:06:20.852Z,49.77
2022-08-05T17:11:26.378Z,49.95
2022-08-05T17:16:33.054Z,49.42
2022-08-05T17:21:36.551Z,48.43
2022-08-05T17:26:39.079Z,47.88
2022-08-05T17:31:58.448Z,48.18
2022-08-05T17:37:00.766Z,48.20
2022-08-05T17:42:19.889Z,49.70
2022-08-05T17:47:23.010Z,47.30
2022-08-05T17:52:25.408Z,47.39
2022-08-05T17:57:28.117Z,48.21
2022-08-05T18:02:29.695Z,46.41
2022-08-05T18:07:41.010Z,45.02
2022-08-05T18:12:43.661Z,43.26
2022-08-05T18:17:59.553Z,44.67
2022-08-05T18:23:11.840Z,45.06
2022-08-05T18:28:16.060Z,46.11
2022-08-05T18:33:22.673Z,47.60
2022-08-05T18:38:26.468Z,46.50
2022-08-05T18:43:31.403Z,46.17
2022-08-05T18:48:41.623Z,46.19
2022-08-05T18:53:45.880Z,47.41
2022-08-05T18:58:54.825Z,47.14
2022-08-05T19:04:02.223Z,47.58
2022-08-05T19:09:07.089Z,47.22
2022-08-05T19:14:59.466Z,47.17
2022-08-05T19:19:30.662Z,47.67
2022-08-05T19:24:34.834Z,46.58
2022-08-05T19:29:36.718Z,46.03
2022-08-05T19:34:40.487Z,48.16
2022-08-05T19:39:45.978Z,48.06
2022-08-05T19:44:52.704Z,47.91
2022-08-05T19:50:00.788Z,47.21
2022-08-05T19:55:06.842Z,47.09
2022-08-05T20:00:10.838Z,48.69
2022-08-05T20:05:16.716Z,49.80
2022-08-05T20:10:26.186Z,47.90
2022-08-05T20:15:52.220Z,48.54
2022-08-05T20:20:50.720Z,48.19
2022-08-05T20:25:52.542Z,46.73
2022-08-05T20:30:55.119Z,46.60
2022-08-05T20:35:56.785Z,44.38
2022-08-05T20:40:59.848Z,45.43
2022-08-05T20:46:06.815Z,45.37
2022-08-05T20:51:08.518Z,46.84
2022-08-05T20:56:10.081Z,49.57
2022-08-05T21:01:11.653Z,48.09
2022-08-05T21:06:27.915Z,49.54
2022-08-05T21:12:09.643Z,49.19
2022-08-05T21:16:51.724Z,49.34
2022-08-05T21:21:53.297Z,50.49
2022-08-05T21:26:58.224Z,49.69
2022-08-05T21:32:03.250Z,48.50
2022-08-05T21:37:05.033Z,48.38
2022-08-05T21:42:06.974Z,47.58
2022-08-05T21:47:56.526Z,48.19
2022-08-05T21:52:49.879Z,48.54
2022-08-05T21:57:51.829Z,48.08
2022-08-05T22:02:55.164Z,48.58
2022-08-05T22:07:58.978Z,48.12
2022-08-05T22:14:05.061Z,47.94
2022-08-05T22:18:25.854Z,47.23
2022-08-05T22:24:03.201Z,48.44
2022-08-05T22:29:07.447Z,47.96
2022-08-05T22:34:08.983Z,47.49
2022-08-05T22:39:16.936Z,49.32
2022-08-05T22:44:22.994Z,48.36
2022-08-05T22:50:17.760Z,47.53
2022-08-05T22:54:48.749Z,47.35
2022-08-05T22:59:54.151Z,48.51
2022-08-05T23:04:55.955Z,47.78
2022-08-05T23:10:02.009Z,49.03
2022-08-05T23:15:09.090Z,48.56
2022-08-05T23:20:17.625Z,49.33
2022-08-05T23:25:51.329Z,49.17
2022-08-05T23:30:43.754Z,48.52
2022-08-05T23:35:45.566Z,48.56
2022-08-05T23:40:49.577Z,47.22
2022-08-05T23:45:51.795Z,48.25
2022-08-05T23:50:53.303Z,48.71
2022-08-05T23:55:54.819Z,48.61
